createdAt,value
2023-03-22T00:01:47.150Z,4.83
2023-03-22T00:04:13.888Z,4.69
2023-03-22T00:06:40.493Z,4.20
2023-03-22T00:09:06.969Z,4.49
2023-03-22T00:11:34.323Z,4.40
2023-03-22T00:14:00.936Z,4.21
2023-03-22T00:16:27.659Z,4.23
2023-03-22T00:18:54.294Z,4.56
2023-03-22T00:21:21.258Z,5.13
2023-03-22T00:23:47.842Z,5.17
2023-03-22T00:26:15.544Z,5.10
2023-03-22T00:28:42.722Z,5.13
2023-03-22T00:31:10.466Z,5.37
2023-03-22T00:33:37.086Z,5.43
2023-03-22T00:36:05.986Z,5.54
2023-03-22T00:38:43.796Z,5.91
2023-03-22T00:41:12.990Z,5.46
2023-03-22T00:43:39.951Z,5.62
2023-03-22T00:46:06.734Z,5.65
2023-03-22T00:48:33.311Z,5.79
2023-03-22T00:50:59.901Z,5.44
2023-03-22T00:53:29.065Z,6.01
2023-03-22T00:55:56.424Z,5.54
2023-03-22T00:58:23.121Z,4.86
2023-03-22T01:00:49.642Z,5.16
2023-03-22T01:03:16.988Z,4.86
2023-03-22T01:05:46.728Z,4.85
2023-03-22T01:08:14.915Z,5.43
2023-03-22T01:10:42.342Z,5.51
2023-03-22T01:13:09.873Z,5.87
2023-03-22T01:15:36.748Z,5.84
2023-03-22T01:18:03.308Z,5.34
2023-03-22T01:20:30.249Z,5.40
2023-03-22T01:22:56.776Z,5.26
2023-03-22T01:25:23.318Z,5.03
2023-03-22T01:27:50.400Z,5.48
2023-03-22T01:30:16.996Z,5.52
2023-03-22T01:32:43.580Z,5.32
2023-03-22T01:35:10.286Z,5.22
2023-03-22T01:37:36.851Z,4.64
2023-03-22T01:40:04.360Z,5.13
2023-03-22T01:42:31.083Z,4.74
2023-03-22T01:45:18.956Z,4.93
2023-03-22T01:47:45.487Z,4.99
2023-03-22T01:50:12.510Z,5.98
2023-03-22T01:52:40.725Z,6.04
2023-03-22T01:55:09.401Z,4.81
2023-03-22T01:57:37.963Z,5.23
2023-03-22T02:00:09.303Z,5.04
2023-03-22T02:02:36.256Z,4.53
2023-03-22T02:05:04.080Z,4.50
2023-03-22T02:07:31.905Z,5.17
2023-03-22T02:09:59.340Z,5.08
2023-03-22T02:12:38.628Z,4.74
2023-03-22T02:15:31.418Z,5.12
2023-03-22T02:18:11.513Z,4.27
2023-03-22T02:20:58.289Z,4.74
2023-03-22T02:23:33.638Z,5.33
2023-03-22T02:26:15.654Z,4.77
2023-03-22T02:28:42.299Z,4.84
2023-03-22T02:31:23.580Z,5.13
2023-03-22T02:33:53.146Z,4.80
2023-03-22T02:36:34.941Z,4.89
2023-03-22T02:39:28.076Z,4.79
2023-03-22T02:42:05.284Z,4.53
2023-03-22T02:44:31.810Z,4.45
2023-03-22T02:47:13.484Z,4.12
2023-03-22T02:50:06.773Z,4.13
2023-03-22T02:52:46.805Z,4.50
2023-03-22T02:55:19.474Z,4.38
2023-03-22T02:58:06.331Z,4.36
2023-03-22T03:00:36.610Z,4.22
2023-03-22T03:03:11.558Z,4.50
2023-03-22T03:05:41.664Z,4.52
2023-03-22T03:08:10.966Z,4.52
2023-03-22T03:10:41.421Z,4.74
2023-03-22T03:13:18.488Z,5.12
2023-03-22T03:15:49.053Z,5.01
2023-03-22T03:18:27.324Z,5.03
2023-03-22T03:21:00.380Z,5.00
2023-03-22T03:23:42.312Z,5.06
2023-03-22T03:26:14.660Z,5.38
2023-03-22T03:28:51.764Z,5.43
2023-03-22T03:31:26.371Z,5.09
2023-03-22T03:34:01.946Z,5.60
2023-03-22T03:36:32.352Z,5.76
2023-03-22T03:39:00.949Z,5.96
2023-03-22T03:41:30.335Z,5.97
2023-03-22T03:43:58.899Z,5.86
2023-03-22T03:46:25.452Z,6.07
2023-03-22T03:48:53.537Z,6.20
2023-03-22T03:51:20.058Z,6.43
2023-03-22T03:53:47.120Z,6.89
2023-03-22T03:56:13.834Z,6.84
2023-03-22T03:58:40.899Z,7.06
2023-03-22T04:01:07.626Z,7.25
2023-03-22T04:03:34.262Z,7.61
2023-03-22T04:06:01.134Z,7.66
2023-03-22T04:08:27.647Z,7.73
2023-03-22T04:10:54.172Z,8.25
2023-03-22T04:13:21.732Z,8.79
2023-03-22T04:15:52.498Z,8.86
2023-03-22T04:18:19.715Z,8.58
2023-03-22T04:20:46.382Z,8.72
2023-03-22T04:23:12.883Z,9.40
2023-03-22T04:25:39.532Z,9.27
2023-03-22T04:28:06.068Z,9.42
2023-03-22T04:30:36.257Z,9.31
2023-03-22T04:33:07.321Z,9.56
2023-03-22T04:35:34.875Z,9.97
2023-03-22T04:38:01.596Z,9.79
2023-03-22T04:40:31.728Z,9.57
2023-03-22T04:42:58.879Z,10.07
2023-03-22T04:45:29.300Z,10.69
2023-03-22T04:47:56.366Z,10.16
2023-03-22T04:50:23.513Z,10.45
2023-03-22T04:52:50.584Z,10.19
2023-03-22T04:55:17.663Z,10.38
2023-03-22T04:57:44.186Z,10.13
2023-03-22T05:00:11.821Z,10.14
2023-03-22T05:02:41.503Z,10.21
2023-03-22T05:05:08.249Z,10.01
2023-03-22T05:07:34.813Z,10.18
2023-03-22T05:10:01.488Z,10.03
2023-03-22T05:12:28.476Z,9.88
2023-03-22T05:14:54.912Z,9.76
2023-03-22T05:17:21.557Z,9.64
2023-03-22T05:19:48.261Z,9.17
2023-03-22T05:22:14.926Z,9.28
2023-03-22T05:24:41.670Z,9.21
2023-03-22T05:27:08.459Z,8.67
2023-03-22T05:29:36.996Z,8.04
2023-03-22T05:32:04.478Z,8.48
2023-03-22T05:34:35.685Z,8.15
2023-03-22T05:37:02.767Z,8.27
2023-03-22T05:39:29.590Z,8.01
2023-03-22T05:41:56.193Z,7.64
2023-03-22T05:44:22.670Z,7.66
2023-03-22T05:46:49.324Z,7.08
2023-03-22T05:49:16.186Z,7.00
2023-03-22T05:51:43.652Z,7.12
2023-03-22T05:54:10.249Z,6.78
2023-03-22T05:56:36.938Z,6.66
2023-03-22T05:59:04.556Z,6.10
2023-03-22T06:01:31.509Z,6.22
2023-03-22T06:03:58.031Z,6.04
2023-03-22T06:06:24.544Z,6.35
2023-03-22T06:08:51.168Z,5.72
2023-03-22T06:11:19.246Z,5.82
2023-03-22T06:13:45.669Z,5.72
2023-03-22T06:16:12.313Z,5.51
2023-03-22T06:18:39.663Z,7.49
2023-03-22T06:21:06.350Z,5.53
2023-03-22T06:23:32.943Z,5.53
2023-03-22T06:25:59.460Z,5.35
2023-03-22T06:28:30.052Z,5.15
2023-03-22T06:30:56.709Z,4.98
2023-03-22T06:33:23.252Z,5.02
2023-03-22T06:35:49.772Z,4.85
2023-03-22T06:38:16.363Z,4.78
2023-03-22T06:40:42.842Z,4.41
2023-03-22T06:43:09.411Z,4.34
2023-03-22T06:45:36.093Z,4.58
2023-03-22T06:48:02.756Z,4.73
2023-03-22T06:50:29.619Z,4.41
2023-03-22T06:52:56.772Z,4.47
2023-03-22T06:55:23.605Z,4.40
2023-03-22T06:57:50.135Z,4.22
2023-03-22T07:00:16.943Z,3.89
2023-03-22T07:02:43.592Z,4.24
2023-03-22T07:05:10.570Z,4.57
2023-03-22T07:07:37.399Z,4.72
2023-03-22T07:10:04.251Z,4.59
2023-03-22T07:12:30.890Z,4.44
2023-03-22T07:14:57.626Z,4.27
2023-03-22T07:17:24.265Z,4.68
2023-03-22T07:19:50.805Z,4.10
2023-03-22T07:22:17.461Z,4.23
2023-03-22T07:24:56.215Z,4.11
2023-03-22T07:27:24.733Z,4.28
2023-03-22T07:29:51.545Z,4.20
2023-03-22T07:32:18.525Z,4.59
2023-03-22T07:34:45.272Z,4.51
2023-03-22T07:37:11.801Z,4.37
2023-03-22T07:39:38.440Z,4.38
2023-03-22T07:42:05.688Z,5.28
2023-03-22T07:44:32.695Z,4.78
2023-03-22T07:46:59.339Z,5.68
2023-03-22T07:49:27.176Z,4.68
2023-03-22T07:51:53.699Z,5.15
2023-03-22T07:54:32.435Z,5.11
2023-03-22T07:57:01.070Z,4.89
2023-03-22T07:59:28.164Z,4.80
2023-03-22T08:01:55.403Z,5.07
2023-03-22T08:04:22.772Z,4.87
2023-03-22T08:06:50.102Z,4.39
2023-03-22T08:09:17.500Z,4.33
2023-03-22T08:11:44.265Z,4.78
2023-03-22T08:14:11.043Z,4.74
2023-03-22T08:16:38.598Z,5.12
2023-03-22T08:19:05.680Z,4.92
2023-03-22T08:21:32.420Z,4.86
2023-03-22T08:23:58.914Z,4.18
2023-03-22T08:26:26.153Z,4.59
2023-03-22T08:28:53.123Z,4.15
2023-03-22T08:31:20.168Z,4.44
2023-03-22T08:33:47.493Z,4.02
2023-03-22T08:36:16.638Z,4.46
2023-03-22T08:38:45.179Z,4.10
2023-03-22T08:41:12.549Z,4.21
2023-03-22T08:43:39.068Z,4.15
2023-03-22T08:46:06.020Z,3.92
2023-03-22T08:48:33.082Z,4.25
2023-03-22T08:51:01.138Z,4.28
2023-03-22T08:53:28.192Z,4.52
2023-03-22T08:55:58.032Z,4.26
2023-03-22T08:58:24.726Z,4.03
2023-03-22T09:00:51.727Z,4.03
2023-03-22T09:03:18.729Z,3.88
2023-03-22T09:05:45.389Z,4.32
2023-03-22T09:08:18.485Z,4.51
2023-03-22T09:10:51.619Z,4.28
2023-03-22T09:13:18.553Z,4.49
2023-03-22T09:15:45.391Z,4.28
2023-03-22T09:18:12.291Z,4.69
2023-03-22T09:20:40.477Z,4.00
2023-03-22T09:23:07.369Z,4.33
2023-03-22T09:25:33.955Z,4.70
2023-03-22T09:28:00.593Z,4.23
2023-03-22T09:30:27.369Z,4.23
2023-03-22T09:32:54.326Z,3.96
2023-03-22T09:35:21.146Z,4.31
2023-03-22T09:37:49.432Z,4.67
2023-03-22T09:40:17.797Z,4.40
2023-03-22T09:42:46.904Z,4.47
2023-03-22T09:45:25.143Z,4.02
2023-03-22T09:47:54.778Z,3.92
2023-03-22T09:50:24.296Z,4.32
2023-03-22T09:52:52.625Z,4.56
2023-03-22T09:55:30.573Z,4.44
2023-03-22T09:58:04.284Z,4.10
2023-03-22T10:00:41.902Z,4.53
2023-03-22T10:03:44.137Z,4.53
2023-03-22T10:06:21.994Z,4.28
2023-03-22T10:09:07.220Z,4.09
2023-03-22T10:11:34.117Z,4.16
2023-03-22T10:14:19.691Z,4.16
2023-03-22T10:16:48.723Z,4.11
2023-03-22T10:19:27.225Z,4.54
2023-03-22T10:21:56.699Z,4.38
2023-03-22T10:24:30.008Z,3.94
2023-03-22T10:26:56.838Z,4.66
2023-03-22T10:29:29.545Z,4.59
2023-03-22T10:31:56.753Z,4.03
2023-03-22T10:34:30.998Z,4.14
2023-03-22T10:37:01.024Z,4.22
2023-03-22T10:39:39.401Z,3.94
2023-03-22T10:42:12.424Z,4.07
2023-03-22T10:44:48.082Z,3.88
2023-03-22T10:47:18.485Z,3.51
2023-03-22T10:49:54.822Z,3.41
2023-03-22T10:52:31.396Z,3.56
2023-03-22T10:55:01.787Z,3.55
2023-03-22T10:57:30.512Z,3.39
2023-03-22T10:59:57.402Z,3.38
2023-03-22T11:02:26.968Z,3.14
2023-03-22T11:04:55.490Z,3.40
2023-03-22T11:07:44.288Z,3.17
2023-03-22T11:10:10.768Z,3.35
2023-03-22T11:12:54.596Z,3.54
2023-03-22T11:15:25.149Z,3.76
2023-03-22T11:17:54.356Z,3.95
2023-03-22T11:20:21.139Z,3.62
2023-03-22T11:22:49.438Z,3.64
2023-03-22T11:25:20.517Z,3.65
2023-03-22T11:27:52.247Z,3.32
2023-03-22T11:30:22.190Z,3.54
2023-03-22T11:32:50.059Z,3.84
2023-03-22T11:35:25.731Z,3.72
2023-03-22T11:37:53.744Z,4.19
2023-03-22T11:40:22.618Z,3.94
2023-03-22T11:42:52.563Z,3.89
2023-03-22T11:45:27.183Z,3.46
2023-03-22T11:47:55.714Z,3.55
2023-03-22T11:50:33.974Z,3.64
2023-03-22T11:53:06.006Z,3.44
2023-03-22T11:55:36.259Z,3.42
2023-03-22T11:58:04.181Z,3.38
2023-03-22T12:00:33.388Z,3.68
2023-03-22T12:03:14.134Z,3.63
2023-03-22T12:05:44.740Z,3.67
2023-03-22T12:08:30.283Z,3.62
2023-03-22T12:11:15.982Z,4.00
2023-03-22T12:13:49.767Z,3.79
2023-03-22T12:16:24.241Z,3.91
2023-03-22T12:19:07.724Z,4.18
2023-03-22T12:21:34.842Z,4.20
2023-03-22T12:24:03.262Z,4.31
2023-03-22T12:26:32.934Z,4.40
2023-03-22T12:29:00.133Z,4.57
2023-03-22T12:31:33.191Z,4.41
2023-03-22T12:34:03.792Z,4.58
2023-03-22T12:36:38.003Z,4.97
2023-03-22T12:39:07.946Z,4.86
2023-03-22T12:41:40.207Z,4.78
2023-03-22T12:44:26.596Z,4.61
2023-03-22T12:47:06.524Z,4.60
2023-03-22T12:49:44.346Z,4.81
2023-03-22T12:52:16.058Z,4.44
2023-03-22T12:54:43.392Z,4.62
2023-03-22T12:57:11.894Z,5.08
2023-03-22T12:59:38.601Z,5.00
2023-03-22T13:02:15.617Z,5.04
2023-03-22T13:04:45.063Z,4.85
2023-03-22T13:07:14.933Z,5.31
2023-03-22T13:09:48.871Z,5.14
2023-03-22T13:12:15.724Z,5.29
2023-03-22T13:14:58.282Z,5.29
2023-03-22T13:17:25.322Z,5.59
2023-03-22T13:19:59.609Z,5.33
2023-03-22T13:22:30.762Z,5.35
2023-03-22T13:25:18.971Z,5.26
2023-03-22T13:27:46.544Z,5.29
2023-03-22T13:30:22.766Z,6.22
2023-03-22T13:32:56.002Z,5.87
2023-03-22T13:35:42.024Z,5.65
2023-03-22T13:38:16.110Z,6.07
2023-03-22T13:40:49.176Z,5.35
2023-03-22T13:43:33.666Z,5.49
2023-03-22T13:46:03.330Z,5.45
2023-03-22T13:48:41.295Z,5.71
2023-03-22T13:51:12.116Z,5.25
2023-03-22T13:53:42.086Z,5.52
2023-03-22T13:56:12.556Z,5.55
2023-03-22T13:58:50.945Z,5.08
2023-03-22T14:01:24.611Z,5.49
2023-03-22T14:03:51.626Z,5.57
2023-03-22T14:06:24.899Z,5.77
2023-03-22T14:08:55.737Z,5.91
2023-03-22T14:11:44.437Z,5.62
2023-03-22T14:14:13.622Z,5.52
2023-03-22T14:16:43.691Z,5.62
2023-03-22T14:19:16.678Z,5.51
2023-03-22T14:21:48.543Z,5.39
